Time;durP1;ratioP1;P1;durP2;ratioP2;P2;SDS_P1;SDS_P2;PMS_P1;PMS_P2;Temp;Humidity;BMP_temperature;BMP_pressure;BME280_temperature;BME280_humidity;BME280_pressure;Samples;Min_cycle;Max_cycle;Signal;HPM_P1;HPM_P2
2022/08/07 00:01:30;;;;;;;11.05;7.10;;;;;;;12.60;95.13;68173.22;5014883;28;20262;-79
2022/08/07 00:03:55;;;;;;;8.13;6.00;;;;;;;;;;5011342;28;20038;-79
2022/08/07 00:06:21;;;;;;;9.10;6.38;;;;;;;12.54;94.07;68169.63;5017851;28;20045;-79
2022/08/07 00:08:47;;;;;;;8.45;6.15;;;;;;;12.59;93.76;68166.75;5017445;28;20537;-79
2022/08/07 00:11:12;;;;;;;9.48;6.38;;;;;;;;;;5018740;28;20041;-79
2022/08/07 00:13:38;;;;;;;9.73;6.13;;;;;;;12.59;93.12;68174.75;5014202;28;20061;-79
2022/08/07 00:16:04;;;;;;;7.97;5.47;;;;;;;12.59;92.77;68166.75;5016325;28;20038;-79
2022/08/07 00:18:29;;;;;;;7.53;5.30;;;;;;;12.55;92.93;68168.13;5018448;28;20497;-79
2022/08/07 00:21:00;;;;;;;8.95;5.82;;;;;;;;;;5009946;28;20096;-79
2022/08/07 00:23:25;;;;;;;8.40;6.22;;;;;;;12.54;93.55;68166.41;5015624;28;20060;-79
2022/08/07 00:25:51;;;;;;;8.43;6.85;;;;;;;12.45;94.13;68156.19;5012187;28;20057;-79
2022/08/07 00:28:16;;;;;;;11.23;6.93;;;;;;;;;;5016297;28;20042;-79
2022/08/07 00:30:42;;;;;;;8.90;6.72;;;;;;;12.35;94.86;68145.41;5008410;28;20068;-79
2022/08/07 00:33:07;;;;;;;8.73;6.22;;;;;;;12.31;94.44;68140.84;5014025;28;20070;-79
2022/08/07 00:35:33;;;;;;;9.73;6.05;;;;;;;12.28;94.24;68138.00;5014141;28;20065;-79
2022/08/07 00:37:59;;;;;;;8.75;6.47;;;;;;;;;;5015735;28;20089;-81
2022/08/07 00:40:24;;;;;;;10.00;6.60;;;;;;;;;;5016580;28;20073;-79
2022/08/07 00:42:49;;;;;;;8.98;6.68;;;;;;;12.15;95.48;68123.78;5014418;28;20050;-78
2022/08/07 00:45:15;;;;;;;9.38;6.80;;;;;;;12.13;95.59;68121.53;5020072;28;20046;-79
2022/08/07 00:47:40;;;;;;;9.98;7.30;;;;;;;12.13;95.58;68121.53;5017853;28;20042;-79
2022/08/07 00:50:06;;;;;;;9.32;6.60;;;;;;;12.10;94.98;68117.53;5019279;28;20121;-79
2022/08/07 00:52:32;;;;;;;11.15;6.72;;;;;;;;;;5012755;28;20138;-79
2022/08/07 00:54:57;;;;;;;10.35;7.30;;;;;;;;;;5017933;28;20053;-79
2022/08/07 00:57:24;;;;;;;9.48;6.95;;;;;;;12.03;95.49;68110.16;5022512;28;20555;-80
2022/08/07 00:59:50;;;;;;;7.90;6.38;;;;;;;12.03;95.72;68109.59;5012118;28;20041;-80
2022/08/07 01:02:16;;;;;;;9.10;7.20;;;;;;;11.95;95.54;68101.63;5019544;28;20050;-80
2022/08/07 01:04:42;;;;;;;10.00;7.18;;;;;;;11.95;95.90;68101.63;5019019;28;20042;-80
2022/08/07 01:07:07;;;;;;;11.05;7.53;;;;;;;;;;5019710;28;20053;-80
2022/08/07 01:09:33;;;;;;;13.05;7.68;;;;;;;11.89;95.98;68100.16;5019790;28;20674;-80
2022/08/07 01:11:59;;;;;;;13.15;7.78;;;;;;;;;;5020147;28;20049;-80
2022/08/07 01:14:25;;;;;;;11.55;8.10;;;;;;;11.88;96.48;68093.13;5019707;28;20665;-79
2022/08/07 01:16:52;;;;;;;10.63;7.95;;;;;;;11.80;96.38;68084.59;5019719;28;20041;-81
2022/08/07 01:19:18;;;;;;;10.07;7.13;;;;;;;11.75;97.32;68078.91;5019622;28;20037;-80
2022/08/07 01:21:48;;;;;;;10.65;7.90;;;;;;;11.70;97.31;68073.22;5018391;28;20559;-80
2022/08/07 01:24:14;;;;;;;10.82;7.35;;;;;;;11.68;97.59;68070.94;5015813;28;20030;-80
2022/08/07 01:26:40;;;;;;;10.52;7.53;;;;;;;;;;5020168;28;20468;-80
2022/08/07 01:29:05;;;;;;;10.48;8.35;;;;;;;11.60;97.75;68061.88;5020708;28;20049;-80
2022/08/07 01:31:31;;;;;;;11.32;8.07;;;;;;;11.59;97.89;68060.72;5019041;28;20042;-80
2022/08/07 01:34:01;;;;;;;10.77;8.52;;;;;;;11.47;98.28;68048.22;5011918;28;20069;-80
2022/08/07 01:36:28;;;;;;;11.15;8.43;;;;;;;11.50;98.44;68051.63;5011596;28;20160;-79
2022/08/07 01:38:54;;;;;;;11.82;7.82;;;;;;;11.42;98.49;68045.22;5027585;28;20102;-79
2022/08/07 01:41:20;;;;;;;11.80;8.32;;;;;;;11.41;98.84;68041.41;5015294;28;20138;-78
2022/08/07 01:43:47;;;;;;;10.05;7.90;;;;;;;11.42;98.97;68047.31;5018687;28;20068;-79
2022/08/07 01:46:14;;;;;;;10.35;8.05;;;;;;;11.41;98.84;68040.84;5026889;28;20044;-79
2022/08/07 01:48:42;;;;;;;10.85;7.88;;;;;;;11.36;98.77;68035.72;5026064;23;20523;-88
2022/08/07 01:51:22;;;;;;;10.43;7.15;;;;;;;11.32;98.82;68031.19;5024246;28;20045;-89
2022/08/07 01:53:56;;;;;;;11.38;7.45;;;;;;;11.28;98.75;68027.22;5017043;28;20034;-88
2022/08/07 01:56:26;;;;;;;11.23;7.93;;;;;;;11.23;98.89;68021.53;5017550;28;20061;-89
2022/08/07 01:58:58;;;;;;;9.77;7.07;;;;;;;11.21;99.28;68013.94;5021736;28;20049;-90
2022/08/07 02:01:27;;;;;;;9.90;7.45;;;;;;;11.21;99.74;68019.28;5022291;28;20053;-89
2022/08/07 02:04:02;;;;;;;13.27;7.75;;;;;;;11.17;99.45;68016.84;5018984;28;20543;-89
2022/08/07 02:06:29;;;;;;;10.00;6.90;;;;;;;;;;5007582;28;20045;-89
2022/08/07 02:08:54;;;;;;;12.80;7.40;;;;;;;;;;5002923;28;20405;-89
2022/08/07 02:11:20;;;;;;;10.02;7.38;;;;;;;11.03;99.78;68004.72;5026391;28;20045;-89
2022/08/07 02:13:47;;;;;;;9.80;7.53;;;;;;;11.10;99.53;68011.53;5006000;28;20041;-88
2022/08/07 02:16:13;;;;;;;11.23;7.50;;;;;;;;;;5008784;28;20048;-89
2022/08/07 02:18:41;;;;;;;9.77;7.15;;;;;;;11.04;99.56;68003.19;5024666;28;20041;-89
2022/08/07 02:21:07;;;;;;;9.98;7.47;;;;;;;10.99;99.74;67994.28;5022838;28;20257;-89
2022/08/07 02:23:35;;;;;;;11.38;7.53;;;;;;;10.91;100.00;67991.13;5009457;28;20049;-89
2022/08/07 02:26:04;;;;;;;10.07;7.30;;;;;;;10.93;100.00;67987.47;5009290;28;20049;-90
2022/08/07 02:28:30;;;;;;;11.63;7.88;;;;;;;10.92;100.00;67986.34;5024588;28;20042;-89
2022/08/07 02:30:57;;;;;;;10.05;7.40;;;;;;;10.91;100.00;67985.78;5022399;28;20048;-89
2022/08/07 02:33:25;;;;;;;10.80;7.43;;;;;;;10.89;100.00;67982.94;4990481;28;20052;-89
2022/08/07 02:35:52;;;;;;;11.90;7.80;;;;;;;10.86;100.00;67980.09;5023689;28;20100;-90
2022/08/07 02:38:21;;;;;;;10.35;7.45;;;;;;;10.86;100.00;67979.53;5009537;28;20045;-89
2022/08/07 02:40:46;;;;;;;11.45;8.18;;;;;;;10.89;100.00;67982.94;4994583;28;20095;-89
2022/08/07 02:43:14;;;;;;;10.18;7.60;;;;;;;10.77;100.00;67975.22;5009635;28;20674;-89
2022/08/07 02:45:42;;;;;;;11.40;7.50;;;;;;;10.76;100.00;67969.34;5007745;28;20076;-89
2022/08/07 02:48:07;;;;;;;9.77;7.68;;;;;;;10.79;100.00;67974.84;5009877;28;20041;-89
2022/08/07 02:50:34;;;;;;;10.95;6.85;;;;;;;;;;5026878;28;20076;-89
2022/08/07 02:53:08;;;;;;;10.90;7.40;;;;;;;10.66;100.00;67957.41;5035553;28;20034;-91
2022/08/07 02:55:42;;;;;;;10.52;7.53;;;;;;;10.71;100.00;67963.09;5035492;28;20063;-90
2022/08/07 02:58:12;;;;;;;9.40;7.15;;;;;;;10.68;100.00;67959.69;5009807;28;20068;-90
2022/08/07 03:00:41;;;;;;;10.80;7.85;;;;;;;10.63;100.00;67954.00;5026378;28;20504;-89
2022/08/07 03:03:08;;;;;;;10.65;6.93;;;;;;;10.64;100.00;67958.38;4971316;28;20099;-90
2022/08/07 03:05:35;;;;;;;11.70;7.82;;;;;;;10.63;100.00;67957.22;4981297;28;20114;-89
2022/08/07 03:08:06;;;;;;;10.80;7.50;;;;;;;10.63;100.00;67954.00;4962822;28;20097;-89
2022/08/07 03:10:32;;;;;;;10.32;7.50;;;;;;;10.58;100.00;67951.56;4983515;28;20293;-90
2022/08/07 03:13:01;;;;;;;12.52;7.60;;;;;;;10.60;100.00;67956.50;4943912;28;20359;-90
2022/08/07 03:15:28;;;;;;;9.95;7.15;;;;;;;10.58;100.00;67951.56;4954582;28;20139;-90
2022/08/07 03:17:54;;;;;;;12.35;8.32;;;;;;;10.58;100.00;67948.91;4967223;28;20038;-89
2022/08/07 03:20:22;;;;;;;10.27;7.28;;;;;;;10.59;100.00;67950.59;4949470;28;20125;-89
2022/08/07 03:22:49;;;;;;;10.88;7.53;;;;;;;10.55;100.00;67948.16;4966342;28;20088;-89
2022/08/07 03:25:17;;;;;;;10.75;7.68;;;;;;;10.53;100.00;67943.81;4972055;28;20093;-89
2022/08/07 03:27:43;;;;;;;12.68;8.45;;;;;;;10.53;100.00;67948.53;4966336;28;20042;-89
2022/08/07 03:30:09;;;;;;;12.07;8.00;;;;;;;10.48;100.00;67940.78;4962434;28;20038;-89
2022/08/07 03:32:40;;;;;;;11.50;8.70;;;;;;;10.46;100.00;67937.94;4980663;28;20042;-89
2022/08/07 03:35:12;;;;;;;13.77;8.75;;;;;;;10.43;100.00;67937.75;4966838;28;20038;-90
2022/08/07 03:37:39;;;;;;;13.30;9.13;;;;;;;10.43;100.00;67934.53;4961046;28;20119;-90
2022/08/07 03:40:06;;;;;;;11.93;9.25;;;;;;;10.39;100.00;67930.56;4982165;28;20050;-89
2022/08/07 03:42:34;;;;;;;12.73;8.88;;;;;;;10.37;100.00;67925.63;4965484;28;20043;-89
2022/08/07 03:45:00;;;;;;;13.27;8.65;;;;;;;10.35;100.00;67926.03;4979198;28;20409;-89
2022/08/07 03:47:28;;;;;;;11.95;8.68;;;;;;;10.40;100.00;67929.03;4966877;28;20076;-89
2022/08/07 03:49:58;;;;;;;11.30;8.82;;;;;;;10.38;100.00;67926.75;4982472;28;20057;-90
2022/08/07 03:52:27;;;;;;;12.43;8.48;;;;;;;10.38;100.00;67929.44;4945384;28;20042;-89
2022/08/07 03:54:56;;;;;;;13.95;10.07;;;;;;;10.38;100.00;67927.31;4985226;28;20057;-89
2022/08/07 03:57:24;;;;;;;13.20;9.63;;;;;;;10.39;100.00;67927.91;5025918;28;20041;-88
2022/08/07 03:59:52;;;;;;;12.10;9.18;;;;;;;10.39;100.00;67933.22;5009808;28;20049;-90
2022/08/07 04:02:18;;;;;;;12.50;9.17;;;;;;;10.39;100.00;67930.56;5007344;28;20455;-89
2022/08/07 04:04:44;;;;;;;12.05;9.27;;;;;;;10.37;100.00;67925.63;5023673;28;20276;-89
2022/08/07 04:07:09;;;;;;;15.27;10.05;;;;;;;10.33;100.00;67921.09;5007416;28;20053;-89
2022/08/07 04:09:35;;;;;;;16.70;9.90;;;;;;;10.31;100.00;67918.84;5025576;28;20270;-90
2022/08/07 04:12:01;;;;;;;11.90;8.80;;;;;;;;;;5005371;28;20073;-89
2022/08/07 04:14:27;;;;;;;14.50;9.60;;;;;;;10.35;100.00;67923.38;5027019;28;20449;-90
2022/08/07 04:16:53;;;;;;;14.25;10.13;;;;;;;10.27;100.00;67919.59;5010140;28;20073;-89
2022/08/07 04:19:18;;;;;;;14.73;10.65;;;;;;;10.27;100.00;67919.59;5017173;28;20393;-89
2022/08/07 04:21:44;;;;;;;14.15;10.38;;;;;;;10.28;100.00;67915.44;5011289;28;20069;-89
2022/08/07 04:24:13;;;;;;;14.80;9.82;;;;;;;10.27;100.00;67917.53;5028645;28;20052;-89
2022/08/07 04:26:39;;;;;;;15.95;10.25;;;;;;;10.29;100.00;67919.22;5011774;28;20496;-89
2022/08/07 04:29:08;;;;;;;15.20;9.35;;;;;;;10.28;100.00;67916.00;5009956;28;20063;-90
2022/08/07 04:31:36;;;;;;;;;;;;;;;10.26;100.00;67919.00;5029300;28;20044;-89
2022/08/07 04:34:02;;;;;;;13.07;9.60;;;;;;;10.22;100.00;67914.50;5014036;28;19917;-90
2022/08/07 04:36:27;;;;;;;13.43;9.88;;;;;;;10.25;100.00;67912.00;4992892;28;20053;-89
2022/08/07 04:38:53;;;;;;;15.98;10.38;;;;;;;10.29;100.00;67919.78;5017418;28;20085;-87
2022/08/07 04:41:18;;;;;;;14.23;10.13;;;;;;;10.27;100.00;67919.59;5019777;28;20041;-88
2022/08/07 04:43:45;;;;;;;16.13;10.38;;;;;;;10.30;100.00;67923.00;5004779;28;20033;-90
2022/08/07 04:46:14;;;;;;;14.48;10.48;;;;;;;10.36;100.00;67924.50;5011876;28;20442;-89
2022/08/07 04:48:58;;;;;;;15.77;11.55;;;;;;;10.44;100.00;67936.22;5022989;28;20187;-90
2022/08/07 04:51:36;;;;;;;14.98;11.35;;;;;;;10.42;100.00;67931.31;5008637;28;20057;-90
2022/08/07 04:54:14;;;;;;;15.45;10.80;;;;;;;10.44;100.00;67933.56;5026279;28;20056;-89
2022/08/07 04:56:59;;;;;;;16.15;11.68;;;;;;;;;;5028956;28;20459;-89
2022/08/07 04:59:30;;;;;;;15.52;11.05;;;;;;;;;;4986899;28;20412;-89
2022/08/07 05:02:02;;;;;;;14.50;10.70;;;;;;;10.62;100.00;67958.78;5011145;28;20045;-89
2022/08/07 05:04:41;;;;;;;16.02;11.88;;;;;;;10.66;100.00;67963.31;5020026;28;20527;-89
2022/08/07 05:07:14;;;;;;;15.07;11.65;;;;;;;10.71;100.00;67963.09;5026846;28;20051;-89
2022/08/07 05:09:48;;;;;;;17.92;12.70;;;;;;;10.81;100.00;67977.09;5029148;28;20053;-89
2022/08/07 05:12:16;;;;;;;16.90;12.50;;;;;;;;;;5010824;28;20125;-89
2022/08/07 05:14:46;;;;;;;19.02;12.07;;;;;;;10.92;100.00;67989.59;5000659;28;20088;-89
2022/08/07 05:17:14;;;;;;;18.30;12.55;;;;;;;11.01;100.00;67997.13;5000805;28;20132;-89
2022/08/07 05:19:50;;;;;;;16.10;12.13;;;;;;;11.09;100.00;68005.09;5005719;28;20503;-89
2022/08/07 05:22:18;;;;;;;18.77;12.63;;;;;;;11.20;100.00;68018.13;5023991;28;20124;-89
2022/08/07 05:24:46;;;;;;;19.65;13.35;;;;;;;11.33;100.00;68031.75;5011337;28;20050;-89
2022/08/07 05:27:13;;;;;;;16.35;12.18;;;;;;;11.42;100.00;68044.66;5028530;28;20069;-90
2022/08/07 05:29:40;;;;;;;15.73;12.30;;;;;;;;;;5011115;28;20510;-88
2022/08/07 05:32:07;;;;;;;15.68;12.57;;;;;;;11.61;100.00;68068.34;4944392;28;20529;-89
2022/08/07 05:34:39;;;;;;;17.60;12.55;;;;;;;11.75;99.74;68078.91;4964323;28;20051;-89
2022/08/07 05:37:04;;;;;;;17.15;13.32;;;;;;;;;;4962451;28;20549;-89
2022/08/07 05:39:30;;;;;;;18.65;13.77;;;;;;;11.89;99.42;68094.81;4949167;28;20046;-87
2022/08/07 05:41:56;;;;;;;18.85;14.05;;;;;;;11.95;99.51;68103.75;4960863;28;20055;-89
2022/08/07 05:44:21;;;;;;;17.27;13.25;;;;;;;;;;4970564;28;20057;-89
2022/08/07 05:46:48;;;;;;;20.77;13.15;;;;;;;;;;4965251;28;20039;-89
2022/08/07 05:49:14;;;;;;;17.58;13.13;;;;;;;12.23;98.75;68132.31;4980251;28;20054;-91
2022/08/07 05:51:46;;;;;;;17.60;13.02;;;;;;;12.33;98.81;68143.13;4989611;28;20031;-89
2022/08/07 05:54:11;;;;;;;18.15;12.30;;;;;;;12.40;98.20;68151.09;4951099;28;20058;-89
2022/08/07 05:56:39;;;;;;;19.45;13.90;;;;;;;12.50;98.52;68162.44;4964274;28;20039;-90
2022/08/07 05:59:08;;;;;;;16.27;13.02;;;;;;;;;;4943910;28;20117;-90
2022/08/07 06:01:34;;;;;;;;;;;;;;;12.72;97.44;68189.00;4978896;28;20122;-90
2022/08/07 06:04:02;;;;;;;19.50;13.30;;;;;;;12.74;96.82;68189.13;4960092;28;20029;-89
2022/08/07 06:06:28;;;;;;;15.65;12.95;;;;;;;12.86;96.45;68202.81;4955517;28;20118;-89
2022/08/07 06:08:54;;;;;;;17.88;14.07;;;;;;;12.95;96.75;68211.91;4950537;28;20513;-90
2022/08/07 06:11:19;;;;;;;14.68;11.45;;;;;;;;;;4972522;28;20249;-91
2022/08/07 06:13:45;;;;;;;14.65;11.55;;;;;;;13.27;94.14;68248.31;4955815;28;20142;-89
2022/08/07 06:16:15;;;;;;;15.63;12.32;;;;;;;13.43;93.71;68265.34;4953140;28;20087;-91
2022/08/07 06:18:40;;;;;;;15.90;12.43;;;;;;;13.56;92.99;68279.59;4963365;28;20031;-91
2022/08/07 06:21:06;;;;;;;13.18;10.50;;;;;;;;;;4973511;28;20090;-91
2022/08/07 06:23:32;;;;;;;14.18;10.25;;;;;;;13.80;91.35;68309.00;5008223;28;20045;-89
2022/08/07 06:25:59;;;;;;;14.85;10.70;;;;;;;13.89;91.39;68319.22;5001313;28;20045;-90
2022/08/07 06:28:24;;;;;;;13.45;10.90;;;;;;;;;;5026237;28;20053;-90
2022/08/07 06:30:50;;;;;;;13.23;10.55;;;;;;;;;;5014196;28;20053;-90
2022/08/07 06:33:19;;;;;;;13.77;10.70;;;;;;;;;;5023417;28;20052;-90
2022/08/07 06:35:44;;;;;;;15.05;11.18;;;;;;;14.22;90.43;68348.75;5004100;28;20379;-90
2022/08/07 06:38:10;;;;;;;13.25;10.77;;;;;;;;;;5010137;28;20124;-90
2022/08/07 06:40:53;;;;;;;13.18;9.48;;;;;;;14.56;89.33;68391.13;5026688;28;20049;-90
2022/08/07 06:43:21;;;;;;;16.48;11.25;;;;;;;14.63;89.72;68399.66;5021879;28;20048;-90
2022/08/07 06:45:47;;;;;;;14.03;11.53;;;;;;;14.68;91.11;68399.44;5001361;28;20041;-89
2022/08/07 06:48:12;;;;;;;14.27;11.13;;;;;;;14.84;90.92;68423.00;5012032;28;20045;-90
2022/08/07 06:50:40;;;;;;;13.40;10.27;;;;;;;14.97;88.56;68431.88;5001792;28;20441;-90
2022/08/07 06:53:07;;;;;;;11.55;10.10;;;;;;;;;;4998491;28;20203;-90
2022/08/07 06:55:34;;;;;;;15.13;10.85;;;;;;;15.17;88.94;68453.53;5012871;28;20099;-89
2022/08/07 06:58:01;;;;;;;13.60;9.55;;;;;;;;;;5019721;28;20049;-90
2022/08/07 07:00:33;;;;;;;12.85;8.88;;;;;;;15.34;86.72;68478.25;5019041;28;20053;-90
2022/08/07 07:02:59;;;;;;;9.88;8.60;;;;;;;15.44;85.02;68489.06;5007961;28;20128;-90
2022/08/07 07:05:27;;;;;;;10.52;8.68;;;;;;;15.64;84.31;68511.84;5003259;28;20046;-90
2022/08/07 07:07:56;;;;;;;12.30;10.07;;;;;;;15.76;85.34;68520.19;4988973;28;20045;-90
2022/08/07 07:10:28;;;;;;;11.38;8.95;;;;;;;15.80;85.25;68524.19;5025616;28;20037;-89
2022/08/07 07:13:00;;;;;;;11.98;9.30;;;;;;;15.92;85.51;68542.66;5028991;28;20275;-90
2022/08/07 07:15:41;;;;;;;11.57;9.55;;;;;;;;;;5026509;28;20150;-90
2022/08/07 07:18:19;;;;;;;12.68;9.80;;;;;;;15.97;85.77;68540.31;5000056;28;20528;-89
2022/08/07 07:20:53;;;;;;;11.43;9.40;;;;;;;16.13;85.24;68566.56;4995809;28;20532;-89
2022/08/07 07:23:19;;;;;;;11.23;9.57;;;;;;;16.32;85.05;68587.69;5006820;28;20313;-89
2022/08/07 07:25:47;;;;;;;12.27;10.25;;;;;;;16.29;84.47;68583.69;5008176;28;20043;-90
2022/08/07 07:28:22;;;;;;;13.70;8.67;;;;;;;16.36;81.83;68586.84;4996077;28;20042;-89
2022/08/07 07:30:53;;;;;;;10.32;8.45;;;;;;;;;;5011663;28;20128;-89
2022/08/07 07:33:21;;;;;;;10.25;8.05;;;;;;;16.60;81.13;68613.06;5007253;28;20233;-90
2022/08/07 07:35:51;;;;;;;12.43;8.50;;;;;;;16.62;80.70;68615.34;5005389;28;20072;-89
2022/08/07 07:38:20;;;;;;;12.18;8.20;;;;;;;16.73;80.18;68632.72;5011700;28;20103;-91
2022/08/07 07:40:47;;;;;;;10.27;8.05;;;;;;;;;;5019960;28;20170;-90
2022/08/07 07:43:15;;;;;;;12.73;7.95;;;;;;;16.94;79.23;68656.09;5007617;28;20041;-90
2022/08/07 07:45:42;;;;;;;11.27;7.83;;;;;;;16.99;80.23;68657.00;4998441;28;20055;-89
2022/08/07 07:48:11;;;;;;;9.93;7.80;;;;;;;17.12;79.43;68676.66;5008237;28;20053;-90
2022/08/07 07:50:37;;;;;;;9.27;7.60;;;;;;;;;;5022435;28;20048;-89
2022/08/07 07:53:07;;;;;;;10.98;7.57;;;;;;;17.30;78.18;68697.19;5009588;28;20298;-89
2022/08/07 07:55:36;;;;;;;;;;;;;;;17.51;78.44;68714.63;5012318;28;20045;-91
2022/08/07 07:58:02;;;;;;;8.90;7.00;;;;;;;17.46;77.70;68708.91;4997905;28;19917;-90
2022/08/07 08:00:28;;;;;;;11.20;7.45;;;;;;;17.56;77.82;68720.88;5037951;28;20045;-89
2022/08/07 08:02:58;;;;;;;9.73;7.38;;;;;;;17.63;76.31;68728.31;5029841;28;20049;-89
2022/08/07 08:05:24;;;;;;;9.25;6.50;;;;;;;17.81;75.79;68754.25;5030589;28;20507;-89
2022/08/07 08:07:49;;;;;;;8.27;5.97;;;;;;;18.03;75.52;68773.41;5013520;28;20169;-89
2022/08/07 08:10:18;;;;;;;9.60;5.75;;;;;;;18.23;73.82;68789.72;5033453;28;20052;-89
2022/08/07 08:12:45;;;;;;;6.88;4.40;;;;;;;18.29;71.83;68806.75;5012260;28;20122;-89
2022/08/07 08:15:11;;;;;;;10.25;6.93;;;;;;;18.31;73.52;68809.63;5030655;28;20053;-88
2022/08/07 08:17:36;;;;;;;6.70;5.88;;;;;;;18.49;73.47;68824.78;5032085;28;20040;-89
2022/08/07 08:20:05;;;;;;;7.97;5.97;;;;;;;18.61;70.56;68843.28;5026330;28;20033;-88
2022/08/07 08:28:08;;;;;;;6.15;4.15;;;;;;;18.76;68.69;68853.91;5026080;28;20175;-89
2022/08/07 08:30:34;;;;;;;6.30;3.80;;;;;;;18.81;67.38;68857.50;5015443;28;20528;-88
2022/08/07 08:33:02;;;;;;;4.60;3.08;;;;;;;19.08;66.39;68895.88;5028118;28;20218;-89
2022/08/07 08:35:30;;;;;;;6.25;3.90;;;;;;;19.03;66.57;68884.75;4994239;28;20067;-89
2022/08/07 08:37:57;;;;;;;6.10;3.15;;;;;;;19.07;67.20;68889.31;5011254;28;20502;-89
2022/08/07 08:40:35;;;;;;;4.55;2.97;;;;;;;;;;5026055;28;20049;-89
2022/08/07 08:43:03;;;;;;;5.03;2.90;;;;;;;19.14;63.74;68894.63;5043205;28;20045;-89
2022/08/07 08:45:37;;;;;;;4.80;2.70;;;;;;;19.19;64.75;68902.47;5051769;28;20032;-89
2022/08/07 08:48:08;;;;;;;3.70;1.70;;;;;;;19.45;62.05;68931.63;5036388;28;20556;-89
2022/08/07 08:50:41;;;;;;;2.97;1.25;;;;;;;19.72;61.00;68961.34;5011955;28;20049;-89
2022/08/07 08:53:09;;;;;;;2.05;1.02;;;;;;;19.83;57.86;68971.22;5031424;28;20500;-89
2022/08/07 08:55:40;;;;;;;3.00;1.23;;;;;;;19.82;59.18;68972.75;5031755;28;20045;-89
2022/08/07 08:58:14;;;;;;;1.85;0.90;;;;;;;19.81;57.29;68969.50;5013102;28;20041;-88
2022/08/07 09:00:51;;;;;;;4.13;1.80;;;;;;;19.93;59.08;68985.34;5019539;28;20574;-89
2022/08/07 09:03:55;;;;;;;3.90;1.63;;;;;;;20.03;59.59;68996.78;5004071;28;20049;-89
2022/08/07 09:06:25;;;;;;;4.45;1.88;;;;;;;;;;4965249;28;20042;-89
2022/08/07 09:09:09;;;;;;;2.67;1.58;;;;;;;19.93;56.55;68982.63;5030664;28;20077;-89
2022/08/07 09:11:52;;;;;;;3.92;1.67;;;;;;;19.97;57.83;68989.91;4995553;28;20042;-89
2022/08/07 09:14:35;;;;;;;2.65;1.60;;;;;;;;;;5028737;28;20045;-89
2022/08/07 09:17:20;;;;;;;4.07;1.73;;;;;;;19.98;58.36;68988.34;5030922;28;20040;-89
2022/08/07 09:20:00;;;;;;;3.45;1.80;;;;;;;20.21;57.37;69016.22;5005750;28;20056;-89
2022/08/07 09:22:40;;;;;;;5.53;1.83;;;;;;;20.39;57.97;69036.78;4994379;28;20038;-89
2022/08/07 09:25:08;;;;;;;4.55;1.85;;;;;;;;;;4971889;28;20043;-89
2022/08/07 09:27:42;;;;;;;6.13;2.30;;;;;;;20.50;55.74;69048.78;4914452;29;20040;-89
2022/08/07 09:30:10;;;;;;;3.85;1.80;;;;;;;20.53;58.91;69052.25;4932343;29;20409;-89
2022/08/07 09:32:47;;;;;;;2.70;1.60;;;;;;;20.64;56.75;69064.25;4934034;29;20039;-90
2022/08/07 09:35:43;;;;;;;4.80;1.70;;;;;;;20.56;54.09;69052.41;4924711;29;20048;-87
2022/08/07 09:38:18;;;;;;;4.00;1.80;;;;;;;20.71;55.69;69069.53;4915354;29;20130;-88
2022/08/07 09:41:13;;;;;;;3.72;1.90;;;;;;;20.93;54.69;69097.41;4900673;29;20043;-88
2022/08/07 09:43:52;;;;;;;3.45;2.15;;;;;;;20.80;54.26;69081.97;4904294;29;20044;-88
2022/08/07 09:46:42;;;;;;;2.95;1.40;;;;;;;20.92;54.27;69096.28;4900351;29;20976;-87
2022/08/07 09:49:27;;;;;;;6.25;1.50;;;;;;;21.13;55.23;69113.75;4923529;29;20195;-87
2022/08/07 09:52:14;;;;;;;3.33;1.60;;;;;;;21.02;53.03;69103.88;4923164;29;20048;-88
2022/08/07 09:54:54;;;;;;;3.65;1.80;;;;;;;21.12;51.78;69118.59;4909991;29;20066;-87
2022/08/07 09:57:41;;;;;;;4.78;1.50;;;;;;;21.13;51.56;69119.16;4944328;28;20064;-87
2022/08/07 10:00:10;;;;;;;2.50;1.67;;;;;;;21.21;51.37;69122.34;4987281;28;20124;-87
2022/08/07 10:02:51;;;;;;;4.28;1.65;;;;;;;21.24;52.02;69131.75;5022404;28;20037;-88
2022/08/07 10:05:54;;;;;;;3.95;1.40;;;;;;;21.32;52.82;69135.50;5014649;28;20508;-87
2022/08/07 10:08:25;;;;;;;2.78;1.90;;;;;;;21.39;52.48;69142.94;5001158;28;20045;-88
2022/08/07 10:11:10;;;;;;;1.98;1.58;;;;;;;21.44;52.79;69153.53;5013621;28;20561;-87
2022/08/07 10:13:43;;;;;;;2.45;1.33;;;;;;;21.68;52.48;69178.25;5022139;28;20040;-88
2022/08/07 10:16:39;;;;;;;1.80;1.20;;;;;;;22.03;53.43;69217.19;5005551;28;20524;-88
2022/08/07 10:19:21;;;;;;;2.85;1.55;;;;;;;22.09;52.01;69227.31;5015045;28;20490;-90
2022/08/07 10:21:46;;;;;;;2.35;1.60;;;;;;;;;;4996570;28;20092;-88
2022/08/07 10:24:32;;;;;;;2.40;1.33;;;;;;;22.08;51.60;69220.19;5007855;28;20580;-88
2022/08/07 10:27:19;;;;;;;2.42;1.60;;;;;;;22.05;50.60;69222.75;5008713;28;20327;-89
2022/08/07 10:30:05;;;;;;;2.95;1.45;;;;;;;21.77;49.58;69185.28;5022501;28;20443;-89
2022/08/07 10:32:30;;;;;;;3.30;1.83;;;;;;;21.66;51.24;69178.69;5019631;28;20064;-89
2022/08/07 10:35:26;;;;;;;3.60;1.92;;;;;;;21.63;48.73;69172.53;5008924;28;20056;-88
2022/08/07 10:38:10;;;;;;;2.70;1.60;;;;;;;21.68;51.37;69178.25;5005993;28;20038;-88
2022/08/07 10:40:44;;;;;;;2.58;1.48;;;;;;;21.79;49.13;69188.13;5009256;28;20520;-88
2022/08/07 10:43:16;;;;;;;3.78;1.50;;;;;;;21.86;49.42;69201.56;5010783;28;20309;-88
2022/08/07 10:45:50;;;;;;;2.65;1.60;;;;;;;22.46;48.57;69268.00;5003434;28;20041;-89
2022/08/07 10:48:43;;;;;;;2.88;1.50;;;;;;;22.02;47.18;69213.31;5018390;28;20045;-89
2022/08/07 10:51:16;;;;;;;3.25;1.75;;;;;;;21.82;46.89;69196.44;5022370;28;20041;-88
2022/08/07 10:53:54;;;;;;;5.88;1.60;;;;;;;21.92;48.79;69207.28;5008703;28;20313;-89
2022/08/07 10:56:35;;;;;;;2.88;1.40;;;;;;;22.23;47.84;69237.38;5026637;28;20067;-89
2022/08/07 10:59:27;;;;;;;4.03;1.60;;;;;;;22.41;47.63;69259.56;5022635;28;20500;-88
2022/08/07 11:01:56;;;;;;;1.80;1.30;;;;;;;22.36;47.72;69257.13;5004030;28;20081;-88
2022/08/07 11:04:58;;;;;;;2.60;1.60;;;;;;;22.51;47.61;69273.72;5021706;28;20066;-89
2022/08/07 11:07:44;;;;;;;4.55;1.15;;;;;;;22.70;47.46;69295.50;5003866;28;20137;-88
2022/08/07 11:10:39;;;;;;;2.17;1.20;;;;;;;22.65;46.40;69289.75;5012116;28;20760;-89
2022/08/07 11:13:17;;;;;;;4.22;1.40;;;;;;;22.78;46.96;69303.50;5005414;28;20076;-88
2022/08/07 11:15:47;;;;;;;2.60;1.40;;;;;;;22.82;45.14;69305.94;5025682;28;20154;-89
2022/08/07 11:18:23;;;;;;;2.65;1.63;;;;;;;22.64;46.04;69288.63;5007142;28;20041;-89
2022/08/07 11:21:27;;;;;;;3.88;1.70;;;;;;;22.62;47.22;69285.75;4997747;28;20420;-89
2022/08/07 11:24:35;;;;;;;3.47;1.75;;;;;;;22.64;45.60;69288.63;4979858;28;20044;-89
2022/08/07 11:27:26;;;;;;;2.92;1.40;;;;;;;22.80;45.58;69306.38;4978970;28;20053;-90
2022/08/07 11:29:56;;;;;;;2.00;1.33;;;;;;;22.82;44.98;69305.38;5019221;28;20049;-89
2022/08/07 11:32:27;;;;;;;4.40;1.50;;;;;;;22.95;46.54;69323.56;5004219;28;20050;-90
2022/08/07 11:34:57;;;;;;;3.20;1.45;;;;;;;22.91;46.56;69318.41;4988170;28;20042;-88
2022/08/07 11:37:47;;;;;;;3.38;1.10;;;;;;;23.28;45.27;69359.66;5021934;28;20081;-89
2022/08/07 11:40:50;;;;;;;2.67;1.60;;;;;;;23.53;44.17;69388.28;4999431;28;20050;-88
2022/08/07 11:43:24;;;;;;;2.90;1.23;;;;;;;23.82;43.51;69421.00;4999082;28;20043;-89
2022/08/07 11:46:01;;;;;;;2.33;1.30;;;;;;;23.58;44.42;69393.47;4984004;28;20153;-90
2022/08/07 11:48:48;;;;;;;2.13;1.20;;;;;;;23.35;44.25;69362.25;4978508;28;20109;-89
2022/08/07 11:51:22;;;;;;;3.63;1.50;;;;;;;;;;4988254;28;20576;-89
2022/08/07 11:54:08;;;;;;;3.13;1.30;;;;;;;23.40;43.46;69373.41;4981868;28;20045;-89
2022/08/07 11:57:04;;;;;;;1.65;1.13;;;;;;;23.69;45.27;69402.78;5000681;28;20555;-89
2022/08/07 11:59:51;;;;;;;4.35;1.20;;;;;;;24.05;44.08;69443.47;5003881;28;20053;-89
2022/08/07 12:03:10;;;;;;;2.85;1.27;;;;;;;23.98;42.31;69443.63;5021653;28;20160;-89
2022/08/07 12:05:55;;;;;;;2.92;1.40;;;;;;;24.08;42.42;69444.78;4976589;28;22276;-89
2022/08/07 12:08:34;;;;;;;3.15;1.30;;;;;;;24.10;42.02;69449.78;5021608;28;20042;-90
2022/08/07 12:11:05;;;;;;;;;;;;;;;24.09;41.71;69445.38;5013314;28;20041;-89
2022/08/07 12:13:59;;;;;;;3.08;1.17;;;;;;;23.80;43.44;69412.69;5006587;28;19914;-90
2022/08/07 12:16:37;;;;;;;2.78;1.20;;;;;;;23.56;42.21;69391.16;4951765;28;20084;-90